Time;durP1;ratioP1;P1;durP2;ratioP2;P2;SDS_P1;SDS_P2;PMS_P1;PMS_P2;Temp;Humidity;BMP_temperature;BMP_pressure;BME280_temperature;BME280_humidity;BME280_pressure;Samples;Min_cycle;Max_cycle;Signal;HPM_P1;HPM_P2
2021/07/31 00:02:04;;;;;;;17.30;11.93;;;;;;;27.77;45.39;93974.92;827432;71;33188;-78
2021/07/31 00:16:59;;;;;;;14.13;12.37;;;;;;;27.37;46.15;93967.48;829195;71;29814;-77
2021/07/31 00:31:46;;;;;;;17.77;12.40;;;;;;;25.02;46.12;93594.98;828336;71;30268;-77
2021/07/31 00:46:47;;;;;;;16.60;13.00;;;;;;;;;;828408;71;29800;-78
2021/07/31 01:02:02;;;;;;;19.00;12.97;;;;;;;27.64;46.75;93967.27;834167;71;33220;-76
2021/07/31 01:16:51;;;;;;;18.70;12.13;;;;;;;27.63;46.70;93960.34;834560;71;29726;-79
2021/07/31 01:31:52;;;;;;;13.47;12.03;;;;;;;;;;828424;71;29426;-74
2021/07/31 01:46:54;;;;;;;15.50;13.20;;;;;;;;;;828470;71;29661;-77
2021/07/31 02:01:42;;;;;;;19.60;13.07;;;;;;;-146.52;100.00;123554.15;834141;71;29556;-79
2021/07/31 02:16:48;;;;;;;24.00;13.40;;;;;;;;;;834085;71;32741;-77
2021/07/31 02:31:53;;;;;;;18.10;13.40;;;;;;;26.74;48.92;93957.19;827467;71;33193;-77
2021/07/31 02:46:47;;;;;;;14.87;12.90;;;;;;;;;;828421;71;29689;-75
2021/07/31 03:02:14;;;;;;;16.17;13.30;;;;;;;26.53;49.83;93969.53;827543;71;33727;-76
2021/07/31 03:16:59;;;;;;;17.17;13.60;;;;;;;26.47;50.07;93975.17;828329;71;30150;-77
2021/07/31 03:31:59;;;;;;;18.00;14.70;;;;;;;26.35;50.47;93977.21;828365;71;30369;-73
2021/07/31 03:47:01;;;;;;;22.00;14.53;;;;;;;26.37;50.19;93975.47;828292;71;31772;-75
2021/07/31 04:01:57;;;;;;;22.97;15.17;;;;;;;26.68;49.78;123554.15;828455;71;30119;-76
2021/07/31 04:16:55;;;;;;;20.20;15.03;;;;;;;27.25;48.92;93985.57;828250;71;29997;-78
2021/07/31 04:32:00;;;;;;;18.57;14.40;;;;;;;27.96;47.69;94005.27;827557;71;33505;-77
2021/07/31 04:47:02;;;;;;;17.00;13.10;;;;;;;28.74;46.04;94025.25;834143;71;30044;-78
2021/07/31 04:48:05;;;;;;;21.03;15.10;;;;;;;28.74;46.03;94029.30;822023;72;27435;-77
2021/07/31 05:02:08;;;;;;;18.63;14.10;;;;;;;29.56;44.59;94039.58;833880;71;33003;-79
2021/07/31 05:17:22;;;;;;;17.50;14.83;;;;;;;30.22;43.83;94043.05;828431;71;29697;-78
2021/07/31 05:31:57;;;;;;;17.70;14.53;;;;;;;30.02;43.94;94042.41;827074;71;33135;-78
2021/07/31 05:46:58;;;;;;;20.30;15.33;;;;;;;29.79;44.98;94050.88;833681;71;33502;-76
2021/07/31 06:01:55;;;;;;;19.40;15.60;;;;;;;29.23;46.29;94058.45;828230;71;29760;-77
2021/07/31 06:16:56;;;;;;;21.27;16.07;;;;;;;29.30;46.33;94054.82;828608;71;29719;-78
2021/07/31 06:32:04;;;;;;;18.00;15.30;;;;;;;29.65;45.78;94037.05;828285;71;32827;-80
2021/07/31 06:46:52;;;;;;;21.57;15.50;;;;;;;30.30;44.17;94030.88;834019;71;33194;-77
2021/07/31 08:16:51;;;;;;;22.30;18.63;;;;;;;32.73;39.49;94017.19;834050;71;33524;-87
2021/07/31 08:32:10;;;;;;;21.13;17.57;;;;;;;33.49;37.44;94019.99;818993;70;32945;-84
2021/07/31 08:46:51;;;;;;;18.17;16.27;;;;;;;34.66;35.59;94012.97;820335;71;29558;-82
2021/07/31 09:02:09;;;;;;;20.17;16.50;;;;;;;35.28;33.52;93996.79;817725;71;30607;-86
2021/07/31 09:17:11;;;;;;;20.30;17.73;;;;;;;35.18;33.23;93989.86;821140;71;33262;-81
2021/07/31 09:32:29;;;;;;;26.70;16.90;;;;;;;35.33;32.35;93978.28;834103;71;32802;-84
2021/07/31 10:17:10;;;;;;;18.43;15.37;;;;;;;35.14;31.44;93910.13;819650;71;32902;-82
2021/07/31 11:02:34;;;;;;;17.93;15.90;;;;;;;35.94;30.75;93903.00;827384;71;33300;-85
2021/07/31 12:31:58;;;;;;;16.47;14.83;;;;;;;34.85;33.49;93856.14;834096;71;30194;-77
2021/07/31 12:47:05;;;;;;;16.30;14.17;;;;;;;35.62;32.35;93849.36;827376;71;32757;-78
2021/07/31 13:01:44;;;;;;;18.40;14.30;;;;;;;35.89;33.54;93868.91;828343;71;29769;-76
2021/07/31 13:16:52;;;;;;;15.67;14.10;;;;;;;35.38;34.42;93874.68;828370;71;33122;-77
2021/07/31 13:31:48;;;;;;;16.43;14.23;;;;;;;35.44;33.80;93867.98;828674;71;29698;-78
2021/07/31 13:46:54;;;;;;;20.20;14.60;;;;;;;35.70;33.20;93877.22;828877;71;32041;-76
2021/07/31 13:47:57;;;;;;;15.87;14.17;;;;;;;35.65;33.30;93872.42;808869;73;27014;-79
2021/07/31 14:01:58;;;;;;;16.90;15.10;;;;;;;35.55;33.01;93907.80;827461;71;32669;-76
2021/07/31 14:16:45;;;;;;;17.30;13.40;;;;;;;34.07;33.85;93923.80;820719;71;33252;-77
2021/07/31 14:31:41;;;;;;;16.07;14.40;;;;;;;33.55;34.39;93914.05;818862;71;30368;-77
2021/07/31 14:46:49;;;;;;;16.63;13.50;;;;;;;33.47;34.32;93912.82;814689;71;33365;-78
2021/07/31 15:02:07;;;;;;;17.57;15.67;;;;;;;33.29;36.82;93883.61;816038;71;30300;-77
2021/07/31 15:17:00;;;;;;;16.70;15.20;;;;;;;32.98;37.80;93883.66;816215;71;29779;-79
2021/07/31 15:31:58;;;;;;;22.40;17.47;;;;;;;29.99;46.18;93970.18;818234;71;29523;-77
2021/07/31 15:46:57;;;;;;;22.27;19.00;;;;;;;27.50;57.79;94020.22;811195;71;28776;-78
2021/07/31 16:02:04;;;;;;;23.83;19.93;;;;;;;;;;810512;71;31764;-75
2021/07/31 16:17:16;;;;;;;23.63;20.17;;;;;;;26.81;64.78;165739.13;818107;71;31930;-79
2021/07/31 16:32:01;;;;;;;24.90;20.47;;;;;;;;;;823759;71;31889;-78
2021/07/31 16:46:57;;;;;;;19.87;16.40;;;;;;;24.50;67.58;94104.25;807992;71;28938;-77
2021/07/31 17:02:08;;;;;;;17.93;16.03;;;;;;;24.40;67.09;94125.88;817298;71;31821;-88
2021/07/31 17:17:01;;;;;;;16.80;13.63;;;;;;;24.50;61.92;94104.83;811734;71;28853;-81
2021/07/31 17:32:25;;;;;;;13.17;11.87;;;;;;;25.25;56.17;94029.41;834442;71;31713;-76
2021/07/31 17:46:57;;;;;;;12.63;11.40;;;;;;;26.06;53.18;94033.83;827407;71;31795;-76
2021/07/31 18:02:00;;;;;;;15.83;14.03;;;;;;;25.46;61.63;94078.78;815091;71;31582;-76
2021/07/31 18:16:54;;;;;;;16.70;14.00;;;;;;;25.55;62.36;94134.20;826850;71;29159;-80
2021/07/31 18:32:02;;;;;;;18.90;15.40;;;;;;;25.34;63.03;94164.02;806803;71;32005;-83
2021/07/31 18:46:57;;;;;;;17.90;14.50;;;;;;;24.72;63.84;94160.56;807562;71;28760;-77
2021/07/31 19:01:45;;;;;;;17.43;15.53;;;;;;;24.64;64.88;94156.36;834178;71;29784;-78
2021/07/31 19:16:46;;;;;;;17.47;15.70;;;;;;;25.83;61.65;94168.77;828315;71;29107;-78
2021/07/31 19:31:58;;;;;;;20.87;17.80;;;;;;;26.35;60.33;94168.23;828442;71;31808;-77
2021/07/31 19:46:51;;;;;;;18.20;16.50;;;;;;;26.71;59.29;94177.97;828357;71;29165;-78
2021/07/31 20:02:02;;;;;;;22.23;17.67;;;;;;;26.76;59.03;94193.12;827433;71;33282;-73
2021/07/31 20:16:53;;;;;;;20.30;18.17;;;;;;;;;;834258;71;29705;-74
2021/07/31 20:31:45;;;;;;;19.43;17.33;;;;;;;;;;827748;71;32722;-77
2021/07/31 20:46:48;;;;;;;20.90;19.00;;;;;;;;;;834113;71;32797;-77
2021/07/31 21:02:18;;;;;;;20.33;18.23;;;;;;;;;;833954;71;33252;-74
2021/07/31 21:17:00;;;;;;;23.40;19.77;;;;;;;26.83;59.91;123554.15;828230;71;30359;-78
2021/07/31 21:32:01;;;;;;;20.90;18.50;;;;;;;26.78;59.88;165732.81;828262;71;30191;-77
2021/07/31 21:47:04;;;;;;;18.60;16.70;;;;;;;26.52;59.42;94438.96;827602;71;32711;-77
2021/07/31 22:01:56;;;;;;;17.40;15.60;;;;;;;26.37;58.79;94426.91;828307;71;29662;-77
2021/07/31 22:16:55;;;;;;;18.13;16.30;;;;;;;;;;825253;71;30298;-77
2021/07/31 22:31:53;;;;;;;14.30;12.93;;;;;;;;;;830023;71;30259;-78
2021/07/31 22:46:52;;;;;;;15.00;12.03;;;;;;;26.22;54.39;94352.82;829099;71;29627;-78
2021/07/31 23:01:51;;;;;;;10.80;9.77;;;;;;;26.22;53.04;94322.44;828297;71;29771;-77
2021/07/31 23:16:49;;;;;;;9.87;8.80;;;;;;;;;;828378;71;29691;-77
2021/07/31 23:31:57;;;;;;;10.60;9.70;;;;;;;26.53;49.69;94252.88;827540;71;32725;-76
2021/07/31 23:46:48;;;;;;;8.37;7.77;;;;;;;26.66;48.38;94220.88;828320;71;30224;-78
